Altamont, Missouri
Current Conditions -  °F | °C
As of 3:15 PM on Saturday 22 Nov 2014 (Local Time) from KGPH Reporting Station
Overcast Overcast  
Wind Chill: 61°   Ceiling: 2400
Heat Index: 61°   Visibility: 10mi
Dew Point: 52°   Wind: 10mph
Humidity: 72%   Direction: 180°S
Pressure: 29.81"   Gusts: NA
Location:  39.89°N, 94.09°W
Report Text: KGPH 222115Z AUTO 18009KT 10SM OVC024 16/11 A2981 RMK AO2
Loading
Personal Weather Stations






























Interactive Weather Map New forecast layout! Learn more

10-Day Weather Forecast

Advertisements
Track Severe Weather on mobile